createdAt,value
2023-04-11T00:02:00.750Z,98184.19
2023-04-11T00:04:08.090Z,98180.16
2023-04-11T00:06:13.797Z,98165.09
2023-04-11T00:08:21.381Z,98163.50
2023-04-11T00:10:26.689Z,98170.97
2023-04-11T00:12:31.783Z,98168.53
2023-04-11T00:14:38.383Z,98173.63
2023-04-11T00:16:44.187Z,98168.66
2023-04-11T00:18:49.450Z,98174.63
2023-04-11T00:20:54.744Z,98162.09
2023-04-11T00:22:59.801Z,98143.69
2023-04-11T00:25:09.141Z,98151.38
2023-04-11T00:27:14.194Z,98147.13
2023-04-11T00:29:19.515Z,98140.31
2023-04-11T00:31:25.037Z,98135.41
2023-04-11T00:33:30.225Z,98132.88
2023-04-11T00:35:38.511Z,98129.50
2023-04-11T00:37:45.689Z,98128.59
2023-04-11T00:39:53.192Z,98124.53
2023-04-11T00:42:08.351Z,98122.78
2023-04-11T00:44:14.287Z,98123.56
2023-04-11T00:46:20.942Z,98144.53
2023-04-11T00:48:28.624Z,98168.97
2023-04-11T00:50:34.520Z,98168.84
2023-04-11T00:52:41.277Z,98154.59
2023-04-11T00:54:46.433Z,98131.25
2023-04-11T00:56:51.660Z,98113.75
2023-04-11T00:58:59.741Z,98108.31
2023-04-11T01:01:10.220Z,98116.00
2023-04-11T01:03:15.416Z,98120.31
2023-04-11T01:05:20.937Z,98131.41
2023-04-11T01:07:27.606Z,98113.06
2023-04-11T01:09:34.736Z,98097.31
2023-04-11T01:11:39.948Z,98084.75
2023-04-11T01:13:46.380Z,98088.44
2023-04-11T01:15:54.037Z,98105.47
2023-04-11T01:18:02.123Z,98115.59
2023-04-11T01:20:10.127Z,98115.72
2023-04-11T01:22:18.341Z,98111.50
2023-04-11T01:24:26.726Z,98124.09
2023-04-11T01:26:32.450Z,98134.88
2023-04-11T01:28:37.547Z,98130.94
2023-04-11T01:30:43.494Z,98130.78
2023-04-11T01:32:50.864Z,98130.78
2023-04-11T01:34:59.442Z,98127.28
2023-04-11T01:37:05.235Z,98127.19
2023-04-11T01:39:10.858Z,98118.78
2023-04-11T01:41:21.326Z,98115.50
2023-04-11T01:43:26.520Z,98123.81
2023-04-11T01:45:32.826Z,98129.66
2023-04-11T01:47:39.222Z,98149.88
2023-04-11T01:49:45.624Z,98157.44
2023-04-11T01:51:51.553Z,98143.91
2023-04-11T01:53:56.927Z,98144.03
2023-04-11T01:56:02.239Z,98146.56
2023-04-11T01:58:09.859Z,98150.06
2023-04-11T02:00:16.738Z,98155.13
2023-04-11T02:02:24.028Z,98160.38
2023-04-11T02:04:29.441Z,98164.78
2023-04-11T02:06:34.909Z,98177.41
2023-04-11T02:08:39.936Z,98192.59
2023-04-11T02:10:44.949Z,98190.00
2023-04-11T02:12:50.215Z,98197.63
2023-04-11T02:14:58.063Z,98195.09
2023-04-11T02:17:05.301Z,98198.00
2023-04-11T02:19:12.764Z,98197.47
2023-04-11T02:21:17.769Z,98191.28
2023-04-11T02:23:24.056Z,98189.78
2023-04-11T02:25:29.316Z,98188.41
2023-04-11T02:27:37.620Z,98188.50
2023-04-11T02:29:42.689Z,98189.38
2023-04-11T02:31:51.582Z,98191.72
2023-04-11T02:33:56.633Z,98187.81
2023-04-11T02:36:01.768Z,98182.88
2023-04-11T02:38:06.822Z,98182.91
2023-04-11T02:40:13.500Z,98183.84
2023-04-11T02:42:18.519Z,98190.47
2023-04-11T02:44:23.543Z,98178.81
2023-04-11T02:46:29.084Z,98178.84
2023-04-11T02:48:38.068Z,98175.53
2023-04-11T02:50:43.688Z,98171.34
2023-04-11T02:52:50.805Z,98163.81
2023-04-11T02:54:59.728Z,98175.66
2023-04-11T02:57:05.187Z,98164.09
2023-04-11T02:59:10.747Z,98163.22
2023-04-11T03:01:18.432Z,98162.50
2023-04-11T03:03:24.345Z,98157.59
2023-04-11T03:05:32.149Z,98170.25
2023-04-11T03:07:38.838Z,98166.22
2023-04-11T03:09:44.074Z,98181.31
2023-04-11T03:11:49.380Z,98176.41
2023-04-11T03:13:54.683Z,98162.16
2023-04-11T03:15:59.740Z,98163.06
2023-04-11T03:18:07.609Z,98147.22
2023-04-11T03:20:20.353Z,98144.72
2023-04-11T03:22:34.081Z,98151.31
2023-04-11T03:24:39.593Z,98156.50
2023-04-11T03:26:45.326Z,98150.00
2023-04-11T03:28:54.029Z,98156.75
2023-04-11T03:30:59.263Z,98171.03
2023-04-11T03:33:05.067Z,98167.00
2023-04-11T03:35:11.316Z,98158.78
2023-04-11T03:37:21.746Z,98153.03
2023-04-11T03:39:29.507Z,98154.81
2023-04-11T03:41:37.374Z,98158.16
2023-04-11T03:43:43.242Z,98168.97
2023-04-11T03:45:48.583Z,98169.13
2023-04-11T03:48:02.676Z,98180.72
2023-04-11T03:50:22.091Z,98175.69
2023-04-11T03:52:34.774Z,98168.97
2023-04-11T03:54:44.468Z,98166.50
2023-04-11T03:56:51.266Z,98161.38
2023-04-11T03:59:00.999Z,98167.13
2023-04-11T04:01:13.173Z,98182.38
2023-04-11T04:03:19.209Z,98174.06
2023-04-11T04:05:26.112Z,98169.88
2023-04-11T04:07:32.088Z,98162.31
2023-04-11T04:10:02.069Z,98157.31
2023-04-11T04:12:08.675Z,98155.75
2023-04-11T04:14:44.104Z,98165.81
2023-04-11T04:16:49.484Z,98154.16
2023-04-11T04:18:56.872Z,98150.72
2023-04-11T04:21:03.246Z,98151.66
2023-04-11T04:23:09.906Z,98159.34
2023-04-11T04:25:35.274Z,98156.03
2023-04-11T04:27:44.516Z,98135.09
2023-04-11T04:29:54.212Z,98135.84
2023-04-11T04:32:21.130Z,98131.06
2023-04-11T04:34:29.485Z,98136.13
2023-04-11T04:36:46.306Z,98144.44
2023-04-11T04:38:55.081Z,98149.44
2023-04-11T04:41:06.220Z,98152.75
2023-04-11T04:43:18.610Z,98156.13
2023-04-11T04:45:33.142Z,98158.69
2023-04-11T04:47:40.465Z,98153.63
2023-04-11T04:49:46.606Z,98154.47
2023-04-11T04:51:51.935Z,98161.84
2023-04-11T04:53:57.786Z,98156.13
2023-04-11T04:56:06.133Z,98161.97
2023-04-11T04:58:16.025Z,98158.50
2023-04-11T05:00:23.220Z,98166.06
2023-04-11T05:02:30.760Z,98176.06
2023-04-11T05:04:37.202Z,98184.44
2023-04-11T05:06:42.262Z,98176.91
2023-04-11T05:08:48.754Z,98170.97
2023-04-11T05:10:54.125Z,98170.13
2023-04-11T05:13:02.185Z,98173.44
2023-04-11T05:15:11.981Z,98174.19
2023-04-11T05:17:18.849Z,98172.47
2023-04-11T05:19:24.119Z,98179.19
2023-04-11T05:21:30.385Z,98183.41
2023-04-11T05:23:35.633Z,98178.31
2023-04-11T05:25:41.457Z,98191.69
2023-04-11T05:27:50.734Z,98189.03
2023-04-11T05:30:03.461Z,98195.59
2023-04-11T05:32:13.187Z,98197.31
2023-04-11T05:34:18.403Z,98190.72
2023-04-11T05:36:28.452Z,98196.53
2023-04-11T05:38:35.740Z,98193.34
2023-04-11T05:40:41.144Z,98188.22
2023-04-11T05:42:46.174Z,98184.81
2023-04-11T05:44:51.197Z,98194.84
2023-04-11T05:46:58.811Z,98186.56
2023-04-11T05:49:03.915Z,98189.09
2023-04-11T05:51:10.803Z,98192.44
2023-04-11T05:53:15.859Z,98199.78
2023-04-11T05:55:21.197Z,98197.88
2023-04-11T05:57:26.371Z,98196.00
2023-04-11T05:59:32.760Z,98201.72
2023-04-11T06:01:40.177Z,98209.94
2023-04-11T06:03:48.753Z,98209.78
2023-04-11T06:05:53.991Z,98209.59
2023-04-11T06:08:00.459Z,98210.28
2023-04-11T06:10:05.578Z,98219.25
2023-04-11T06:12:11.687Z,98212.13
2023-04-11T06:14:16.889Z,98214.31
2023-04-11T06:16:22.241Z,98224.94
2023-04-11T06:18:27.305Z,98211.25
2023-04-11T06:20:35.175Z,98206.78
2023-04-11T06:22:40.705Z,98210.09
2023-04-11T06:24:45.957Z,98207.44
2023-04-11T06:26:51.385Z,98214.03
2023-04-11T06:28:56.606Z,98221.88
2023-04-11T06:31:01.924Z,98220.50
2023-04-11T06:33:07.447Z,98220.38
2023-04-11T06:35:13.032Z,98228.31
2023-04-11T06:37:21.456Z,98228.72
2023-04-11T06:39:26.688Z,98230.88
2023-04-11T06:41:32.198Z,98255.03
2023-04-11T06:43:37.234Z,98272.53
2023-04-11T06:45:42.246Z,98271.84
2023-04-11T06:47:47.461Z,98270.00
2023-04-11T06:49:52.499Z,98265.56
2023-04-11T06:51:59.727Z,98274.28
2023-04-11T06:54:08.441Z,98272.03
2023-04-11T06:56:13.968Z,98278.03
2023-04-11T06:58:19.602Z,98277.50
2023-04-11T07:00:25.069Z,98270.84
2023-04-11T07:02:30.849Z,98273.91
2023-04-11T07:04:36.060Z,98278.34
2023-04-11T07:06:41.404Z,98280.34
2023-04-11T07:08:46.757Z,98273.25
2023-04-11T07:10:54.574Z,98279.25
2023-04-11T07:12:59.813Z,98279.56
2023-04-11T07:15:07.436Z,98274.94
2023-04-11T07:17:12.589Z,98283.97
2023-04-11T07:19:17.612Z,98281.88
2023-04-11T07:21:23.414Z,98274.56
2023-04-11T07:23:28.787Z,98267.34
2023-04-11T07:25:33.888Z,98271.88
2023-04-11T07:27:44.015Z,98284.78
2023-04-11T07:29:49.292Z,98283.75
2023-04-11T07:31:54.357Z,98275.22
2023-04-11T07:33:59.719Z,98286.63
2023-04-11T07:36:04.782Z,98292.19
2023-04-11T07:38:10.341Z,98285.59
2023-04-11T07:40:16.092Z,98292.56
2023-04-11T07:42:21.454Z,98299.34
2023-04-11T07:44:29.476Z,98319.19
2023-04-11T07:46:34.560Z,98322.97
2023-04-11T07:48:39.995Z,98313.06
2023-04-11T07:50:44.997Z,98321.75
2023-04-11T07:52:51.492Z,98308.38
2023-04-11T07:54:56.492Z,98313.41
2023-04-11T07:57:02.245Z,98318.25
2023-04-11T07:59:07.467Z,98330.31
2023-04-11T08:01:27.148Z,98323.72
2023-04-11T08:03:32.817Z,98316.94
2023-04-11T08:05:39.387Z,98333.91
2023-04-11T08:07:44.625Z,98337.34
2023-04-11T08:09:49.619Z,98346.03
2023-04-11T08:11:54.605Z,98340.38
2023-04-11T08:13:59.724Z,98342.56
2023-04-11T08:16:06.588Z,98346.25
2023-04-11T08:18:16.663Z,98350.69
2023-04-11T08:20:22.273Z,98339.38
2023-04-11T08:22:27.996Z,98336.00
2023-04-11T08:24:33.126Z,98337.66
2023-04-11T08:26:38.160Z,98335.53
2023-04-11T08:28:43.693Z,98336.63
2023-04-11T08:30:48.796Z,98333.34
2023-04-11T08:32:53.919Z,98331.75
2023-04-11T08:35:01.941Z,98338.44
2023-04-11T08:37:06.920Z,98322.56
2023-04-11T08:39:12.158Z,98329.91
2023-04-11T08:41:17.254Z,98335.56
2023-04-11T08:43:22.595Z,98327.69
2023-04-11T08:45:27.770Z,98331.66
2023-04-11T08:47:32.912Z,98333.69
2023-04-11T08:49:38.051Z,98326.56
2023-04-11T08:51:46.970Z,98334.13
2023-04-11T08:53:55.005Z,98328.22
2023-04-11T08:56:00.236Z,98330.53
2023-04-11T08:58:05.467Z,98321.41
2023-04-11T09:00:14.918Z,98323.91
2023-04-11T09:02:20.604Z,98327.03
2023-04-11T09:04:43.546Z,98329.97
2023-04-11T09:07:01.756Z,98339.50
2023-04-11T09:09:08.395Z,98332.66
2023-04-11T09:11:13.418Z,98337.06
2023-04-11T09:13:24.279Z,98353.53
2023-04-11T09:15:32.142Z,98354.31
2023-04-11T09:17:44.580Z,98369.63
2023-04-11T09:19:49.926Z,98356.78
2023-04-11T09:21:56.907Z,98368.41
2023-04-11T09:24:18.381Z,98370.59
2023-04-11T09:26:30.733Z,98363.88
2023-04-11T09:28:44.919Z,98365.72
2023-04-11T09:30:53.739Z,98370.31
2023-04-11T09:32:58.886Z,98377.00
2023-04-11T09:35:16.278Z,98381.69
2023-04-11T09:37:21.790Z,98416.06
2023-04-11T09:39:29.783Z,98426.84
2023-04-11T09:41:38.789Z,98430.09
2023-04-11T09:43:55.914Z,98426.59
2023-04-11T09:46:18.904Z,98401.94
2023-04-11T09:48:32.034Z,98392.84
2023-04-11T09:50:41.199Z,98389.56
2023-04-11T09:52:48.693Z,98390.22
2023-04-11T09:54:57.176Z,98379.06
2023-04-11T09:57:02.825Z,98376.72
2023-04-11T09:59:07.868Z,98362.44
2023-04-11T10:01:14.384Z,98365.56
2023-04-11T10:03:20.623Z,98363.09
2023-04-11T10:05:29.788Z,98370.78
2023-04-11T10:07:36.400Z,98369.78
2023-04-11T10:09:43.557Z,98374.44
2023-04-11T10:11:51.760Z,98382.97
2023-04-11T10:13:58.113Z,98374.31
2023-04-11T10:16:12.668Z,98371.84
2023-04-11T10:18:17.977Z,98375.03
2023-04-11T10:20:46.355Z,98377.19
2023-04-11T10:23:13.249Z,98372.03
2023-04-11T10:25:19.568Z,98374.91
2023-04-11T10:27:53.719Z,98371.34
2023-04-11T10:29:58.647Z,98364.66
2023-04-11T10:32:13.680Z,98363.50
2023-04-11T10:34:18.933Z,98366.53
2023-04-11T10:36:24.104Z,98367.88
2023-04-11T10:38:49.556Z,98366.91
2023-04-11T10:41:28.577Z,98353.00
2023-04-11T10:43:39.119Z,98351.94
2023-04-11T10:45:44.776Z,98356.78
2023-04-11T10:48:07.862Z,98349.19
2023-04-11T10:50:51.910Z,98366.63
2023-04-11T10:52:58.544Z,98379.16
2023-04-11T10:55:19.903Z,98367.72
2023-04-11T10:57:25.551Z,98373.97
2023-04-11T11:00:14.305Z,98364.16
2023-04-11T11:02:22.045Z,98358.81
2023-04-11T11:04:34.551Z,98367.16
2023-04-11T11:06:47.184Z,98365.56
2023-04-11T11:08:56.253Z,98363.03
2023-04-11T11:11:04.361Z,98353.78
2023-04-11T11:13:09.571Z,98363.19
2023-04-11T11:15:18.981Z,98343.13
2023-04-11T11:17:24.225Z,98352.91
2023-04-11T11:19:30.039Z,98359.16
2023-04-11T11:21:35.275Z,98360.59
2023-04-11T11:23:40.284Z,98371.75
2023-04-11T11:25:56.087Z,98384.84
2023-04-11T11:28:07.565Z,98386.94
2023-04-11T11:30:20.144Z,98396.16
2023-04-11T11:32:28.713Z,98409.19
2023-04-11T11:34:36.614Z,98402.72
2023-04-11T11:36:44.089Z,98396.09
2023-04-11T11:38:49.292Z,98382.28
2023-04-11T11:40:55.049Z,98382.06
2023-04-11T11:43:00.551Z,98369.31
2023-04-11T11:45:20.584Z,98377.75
2023-04-11T11:47:27.359Z,98382.28
2023-04-11T11:49:50.141Z,98386.19
2023-04-11T11:51:55.187Z,98387.59
2023-04-11T11:54:08.862Z,98386.22
2023-04-11T11:56:22.124Z,98386.03
2023-04-11T11:58:27.529Z,98384.91
2023-04-11T12:00:40.666Z,98378.19
2023-04-11T12:02:47.528Z,98386.28
2023-04-11T12:04:52.866Z,98383.03
2023-04-11T12:06:58.283Z,98383.06
2023-04-11T12:09:10.365Z,98388.28
2023-04-11T12:11:18.561Z,98390.31
2023-04-11T12:13:27.875Z,98383.72
2023-04-11T12:15:38.652Z,98375.16
2023-04-11T12:17:44.032Z,98393.53
2023-04-11T12:19:49.379Z,98373.75
2023-04-11T12:21:54.397Z,98374.94
2023-04-11T12:24:00.295Z,98388.22
2023-04-11T12:26:05.326Z,98397.44
2023-04-11T12:28:11.064Z,98387.97
2023-04-11T12:30:17.852Z,98388.06
2023-04-11T12:32:27.677Z,98384.47
2023-04-11T12:34:33.142Z,98391.28
2023-04-11T12:36:38.201Z,98384.19
2023-04-11T12:38:43.762Z,98388.63
2023-04-11T12:40:49.287Z,98380.28
2023-04-11T12:42:57.355Z,98384.16
2023-04-11T12:45:02.741Z,98375.66
2023-04-11T12:47:07.945Z,98387.34
2023-04-11T12:49:16.203Z,98379.69
2023-04-11T12:51:21.283Z,98374.47
2023-04-11T12:53:26.315Z,98379.34
2023-04-11T12:55:31.489Z,98384.47
2023-04-11T12:57:36.766Z,98385.16
2023-04-11T12:59:41.976Z,98377.47
2023-04-11T13:01:47.084Z,98371.09
2023-04-11T13:03:52.881Z,98390.69
2023-04-11T13:06:00.856Z,98379.16
2023-04-11T13:08:05.901Z,98379.84
2023-04-11T13:10:14.006Z,98377.84
2023-04-11T13:12:19.399Z,98376.16
2023-04-11T13:14:24.471Z,98374.66
2023-04-11T13:16:29.510Z,98365.53
2023-04-11T13:18:34.549Z,98356.00
2023-04-11T13:20:39.841Z,98360.06
2023-04-11T13:22:47.636Z,98364.56
2023-04-11T13:24:53.022Z,98355.16
2023-04-11T13:26:59.122Z,98355.81
2023-04-11T13:29:04.203Z,98368.84
2023-04-11T13:31:10.801Z,98369.66
2023-04-11T13:33:15.876Z,98388.06
2023-04-11T13:35:21.419Z,98383.66
2023-04-11T13:37:26.656Z,98375.47
2023-04-11T13:39:34.510Z,98384.19
2023-04-11T13:41:39.560Z,98362.16
2023-04-11T13:43:44.896Z,98361.88
2023-04-11T13:45:50.295Z,98351.53
2023-04-11T13:47:55.347Z,98352.50
2023-04-11T13:50:00.804Z,98336.97
2023-04-11T13:52:05.833Z,98330.03
2023-04-11T13:54:10.899Z,98333.75
2023-04-11T13:56:20.628Z,98352.03
2023-04-11T13:58:25.708Z,98348.63
2023-04-11T14:00:31.041Z,98346.75
2023-04-11T14:02:36.215Z,98333.31
2023-04-11T14:04:42.248Z,98334.19
2023-04-11T14:06:47.461Z,98308.97
2023-04-11T14:08:52.462Z,98305.00
2023-04-11T14:10:57.784Z,98309.84
2023-04-11T14:13:05.598Z,98306.69
2023-04-11T14:15:13.171Z,98316.34
2023-04-11T14:17:18.596Z,98307.53
2023-04-11T14:19:25.034Z,98321.25
2023-04-11T14:21:30.122Z,98310.91
2023-04-11T14:23:35.338Z,98309.28
2023-04-11T14:25:40.907Z,98318.84
2023-04-11T14:27:46.416Z,98333.91
2023-04-11T14:29:54.034Z,98348.41
2023-04-11T14:32:00.088Z,98356.94
2023-04-11T14:34:05.153Z,98352.81
2023-04-11T14:36:11.937Z,98348.63
2023-04-11T14:38:17.411Z,98341.84
2023-04-11T14:40:22.842Z,98331.50
2023-04-11T14:42:27.861Z,98331.00
2023-04-11T14:44:33.365Z,98320.34
2023-04-11T14:46:41.136Z,98325.59
2023-04-11T14:48:46.506Z,98330.53
2023-04-11T14:50:51.763Z,98322.81
2023-04-11T14:52:56.865Z,98336.53
2023-04-11T14:55:02.153Z,98333.59
2023-04-11T14:57:07.298Z,98347.22
2023-04-11T14:59:13.272Z,98340.28
2023-04-11T15:01:19.361Z,98328.06
2023-04-11T15:03:27.275Z,98336.97
2023-04-11T15:05:32.956Z,98346.88
2023-04-11T15:07:38.265Z,98351.97
2023-04-11T15:09:43.462Z,98359.59
2023-04-11T15:11:48.847Z,98359.56
2023-04-11T15:13:54.369Z,98368.25
2023-04-11T15:16:02.460Z,98365.41
2023-04-11T15:18:28.092Z,98350.50
2023-04-11T15:20:33.624Z,98340.44
2023-04-11T15:22:42.547Z,98336.31
2023-04-11T15:24:47.770Z,98342.16
2023-04-11T15:26:52.824Z,98342.44
2023-04-11T15:28:57.802Z,98346.75
2023-04-11T15:31:03.580Z,98332.94
2023-04-11T15:33:08.758Z,98341.75
2023-04-11T15:35:16.593Z,98325.00
2023-04-11T15:37:22.680Z,98319.88
2023-04-11T15:39:28.085Z,98330.56
2023-04-11T15:41:33.291Z,98320.13
2023-04-11T15:43:38.840Z,98334.75
2023-04-11T15:45:44.593Z,98332.53
2023-04-11T15:50:03.039Z,98338.47
2023-04-11T15:52:11.314Z,98337.94
2023-04-11T15:54:16.351Z,98328.66
2023-04-11T15:56:21.538Z,98334.72
2023-04-11T15:58:27.684Z,98327.47
2023-04-11T16:00:32.886Z,98325.84
2023-04-11T16:02:38.077Z,98324.19
2023-04-11T16:04:45.291Z,98317.63
2023-04-11T16:06:52.536Z,98324.09
2023-04-11T16:09:00.215Z,98318.03
2023-04-11T16:11:05.266Z,98332.22
2023-04-11T16:13:10.300Z,98324.75
2023-04-11T16:15:15.555Z,98330.94
2023-04-11T16:17:21.130Z,98327.53
2023-04-11T16:19:26.265Z,98323.19
2023-04-11T16:21:31.570Z,98330.69
2023-04-11T16:23:36.582Z,98326.84
2023-04-11T16:25:44.975Z,98327.22
2023-04-11T16:27:51.231Z,98327.53
2023-04-11T16:29:59.952Z,98325.94
2023-04-11T16:32:08.431Z,98332.66
2023-04-11T16:34:13.437Z,98343.22
2023-04-11T16:36:18.519Z,98314.63
2023-04-11T16:38:23.640Z,98315.56
2023-04-11T16:40:30.571Z,98321.31
2023-04-11T16:42:38.216Z,98329.56
2023-04-11T16:44:43.202Z,98326.16
2023-04-11T16:46:48.216Z,98328.94
2023-04-11T16:48:53.232Z,98337.13
2023-04-11T16:50:58.248Z,98330.56
2023-04-11T16:53:03.373Z,98330.53
2023-04-11T16:55:09.472Z,98337.06
2023-04-11T16:57:14.464Z,98339.44
2023-04-11T16:59:22.526Z,98338.44
2023-04-11T17:01:27.731Z,98349.44
2023-04-11T17:03:33.447Z,98345.44
2023-04-11T17:05:39.291Z,98349.63
2023-04-11T17:07:44.639Z,98342.16
2023-04-11T17:09:50.688Z,98340.09
2023-04-11T17:11:55.693Z,98328.59
2023-04-11T17:14:00.719Z,98334.22
2023-04-11T17:16:10.493Z,98338.84
2023-04-11T17:18:16.830Z,98333.47
2023-04-11T17:20:21.922Z,98340.72
2023-04-11T17:22:26.977Z,98333.38
2023-04-11T17:24:32.562Z,98335.28
2023-04-11T17:26:37.634Z,98331.53
2023-04-11T17:28:43.496Z,98331.78
2023-04-11T17:30:49.327Z,98324.63
2023-04-11T17:32:57.334Z,98333.03
2023-04-11T17:35:02.653Z,98333.75
2023-04-11T17:37:07.676Z,98337.03
2023-04-11T17:39:17.757Z,98345.72
2023-04-11T17:41:23.149Z,98344.75
2023-04-11T17:43:28.209Z,98346.75
2023-04-11T17:45:33.510Z,98349.06
2023-04-11T17:47:38.795Z,98354.84
2023-04-11T17:49:46.465Z,98360.06
2023-04-11T17:51:59.146Z,98367.00
2023-04-11T17:54:04.619Z,98366.59
2023-04-11T17:56:11.746Z,98372.81
2023-04-11T17:58:17.062Z,98374.28
2023-04-11T18:00:26.565Z,98382.06
2023-04-11T18:02:33.073Z,98392.56
2023-04-11T18:04:38.285Z,98394.94
2023-04-11T18:06:46.761Z,98393.91
2023-04-11T18:08:52.719Z,98392.84
2023-04-11T18:10:58.427Z,98404.13
2023-04-11T18:13:03.535Z,98393.88
2023-04-11T18:15:12.075Z,98404.38
2023-04-11T18:17:17.085Z,98406.28
2023-04-11T18:19:22.093Z,98401.56
2023-04-11T18:21:27.105Z,98403.50
2023-04-11T18:23:34.749Z,98407.22
2023-04-11T18:25:39.836Z,98417.63
2023-04-11T18:27:45.058Z,98420.34
2023-04-11T18:29:51.930Z,98412.06
2023-04-11T18:31:56.972Z,98416.47
2023-04-11T18:34:03.380Z,98414.81
2023-04-11T18:36:10.142Z,98416.56
2023-04-11T18:38:15.155Z,98409.88
2023-04-11T18:40:22.820Z,98418.31
2023-04-11T18:42:28.115Z,98419.94
2023-04-11T18:44:34.133Z,98414.25
2023-04-11T18:46:39.760Z,98415.25
2023-04-11T18:48:44.766Z,98423.75
2023-04-11T18:50:49.784Z,98427.31
2023-04-11T18:52:56.579Z,98429.81
2023-04-11T18:55:03.515Z,98429.81
2023-04-11T18:57:13.733Z,98427.25
2023-04-11T18:59:24.210Z,98430.94
2023-04-11T19:01:30.769Z,98429.53
2023-04-11T19:03:36.685Z,98429.53
2023-04-11T19:05:42.365Z,98433.03
2023-04-11T19:07:48.058Z,98428.25
2023-04-11T19:09:53.262Z,98431.00
2023-04-11T19:11:58.249Z,98434.50
2023-04-11T19:14:05.869Z,98438.03
2023-04-11T19:16:11.195Z,98442.34
2023-04-11T19:18:16.303Z,98441.66
2023-04-11T19:20:22.773Z,98437.53
2023-04-11T19:22:28.022Z,98439.28
2023-04-11T19:24:33.049Z,98432.72
2023-04-11T19:26:38.085Z,98430.31
2023-04-11T19:28:43.091Z,98424.41
2023-04-11T19:30:51.601Z,98417.78
2023-04-11T19:32:57.322Z,98414.63
2023-04-11T19:35:02.482Z,98416.38
2023-04-11T19:37:08.401Z,98413.19
2023-04-11T19:39:13.465Z,98413.31
2023-04-11T19:41:20.116Z,98413.38
2023-04-11T19:43:25.132Z,98415.94
2023-04-11T19:45:31.836Z,98411.81
2023-04-11T19:47:40.431Z,98415.16
2023-04-11T19:49:45.514Z,98407.81
2023-04-11T19:51:51.100Z,98412.09
2023-04-11T19:53:56.664Z,98402.22
2023-04-11T19:56:01.928Z,98402.34
2023-04-11T19:58:06.963Z,98403.19
2023-04-11T20:00:17.506Z,98395.84
2023-04-11T20:02:22.900Z,98394.19
2023-04-11T20:04:30.980Z,98393.44
2023-04-11T20:06:36.757Z,98394.34
2023-04-11T20:08:41.801Z,98391.13
2023-04-11T20:10:46.951Z,98392.78
2023-04-11T20:12:51.950Z,98391.16
2023-04-11T20:14:56.951Z,98399.53
2023-04-11T20:17:02.279Z,98404.53
2023-04-11T20:19:07.496Z,98392.94
2023-04-11T20:21:15.308Z,98392.13
2023-04-11T20:23:21.629Z,98394.72
2023-04-11T20:25:26.840Z,98399.78
2023-04-11T20:27:31.819Z,98393.06
2023-04-11T20:29:38.492Z,98395.56
2023-04-11T20:31:43.610Z,98391.50
2023-04-11T20:33:48.652Z,98391.56
2023-04-11T20:35:54.040Z,98398.19
2023-04-11T20:38:02.433Z,98396.63
2023-04-11T20:40:10.378Z,98395.78
2023-04-11T20:42:15.428Z,98394.84
2023-04-11T20:44:23.742Z,98395.53
2023-04-11T20:46:30.040Z,98397.91
2023-04-11T20:48:35.646Z,98389.50
2023-04-11T20:50:41.058Z,98392.78
2023-04-11T20:52:50.651Z,98389.56
2023-04-11T20:54:58.418Z,98378.91
2023-04-11T20:57:03.455Z,98380.63
2023-04-11T20:59:09.213Z,98381.47
2023-04-11T21:01:15.650Z,98373.19
2023-04-11T21:03:21.411Z,98372.44
2023-04-11T21:05:26.570Z,98370.06
2023-04-11T21:07:32.563Z,98376.72
2023-04-11T21:09:37.581Z,98367.59
2023-04-11T21:11:45.156Z,98365.13
2023-04-11T21:13:51.934Z,98360.22
2023-04-11T21:15:56.959Z,98361.03
2023-04-11T21:18:02.065Z,98361.06
2023-04-11T21:20:11.291Z,98356.94
2023-04-11T21:22:16.299Z,98348.63
2023-04-11T21:24:21.543Z,98360.25
2023-04-11T21:26:26.550Z,98350.34
2023-04-11T21:28:35.373Z,98347.84
2023-04-11T21:30:42.473Z,98343.72
2023-04-11T21:32:47.543Z,98342.91
2023-04-11T21:34:52.763Z,98343.72
2023-04-11T21:36:57.767Z,98342.06
2023-04-11T21:39:02.999Z,98332.13
2023-04-11T21:41:08.507Z,98337.09
2023-04-11T21:43:13.548Z,98335.44
2023-04-11T21:45:21.984Z,98330.44
2023-04-11T21:47:27.007Z,98323.78
2023-04-11T21:49:32.086Z,98326.25
2023-04-11T21:51:37.477Z,98326.25
2023-04-11T21:53:42.748Z,98325.38
2023-04-11T21:55:49.057Z,98318.78
2023-04-11T21:57:54.187Z,98319.59
2023-04-11T21:59:59.384Z,98315.47
2023-04-11T22:02:07.673Z,98324.56
2023-04-11T22:04:13.476Z,98322.06
2023-04-11T22:06:18.964Z,98313.78
2023-04-11T22:08:29.371Z,98311.34
2023-04-11T22:10:47.710Z,98306.34
2023-04-11T22:12:54.536Z,98300.53
2023-04-11T22:15:00.051Z,98307.16
2023-04-11T22:17:09.073Z,98307.22
2023-04-11T22:19:14.384Z,98312.22
2023-04-11T22:21:21.544Z,98302.28
2023-04-11T22:23:27.052Z,98294.75
2023-04-11T22:25:32.553Z,98288.88
2023-04-11T22:27:38.618Z,98292.13
2023-04-11T22:29:45.544Z,98285.47
2023-04-11T22:31:50.916Z,98282.19
2023-04-11T22:33:59.111Z,98275.47
2023-04-11T22:36:04.373Z,98269.66
2023-04-11T22:38:10.041Z,98271.28
2023-04-11T22:40:22.172Z,98272.13
2023-04-11T22:42:27.562Z,98273.75
2023-04-11T22:44:32.651Z,98270.41
2023-04-11T22:46:39.412Z,98272.13
2023-04-11T22:48:44.509Z,98270.41
2023-04-11T22:50:53.118Z,98265.41
2023-04-11T22:53:02.089Z,98268.69
2023-04-11T22:55:10.380Z,98263.72
2023-04-11T22:57:15.698Z,98257.91
2023-04-11T22:59:20.695Z,98254.56
2023-04-11T23:01:26.053Z,98252.88
2023-04-11T23:03:31.808Z,98262.00
2023-04-11T23:05:36.819Z,98257.06
2023-04-11T23:07:44.810Z,98250.47
2023-04-11T23:09:49.791Z,98246.28
2023-04-11T23:11:55.122Z,98246.31
2023-04-11T23:14:01.424Z,98235.53
2023-04-11T23:16:09.295Z,98237.22
2023-04-11T23:18:14.430Z,98235.56
2023-04-11T23:20:20.258Z,98229.78
2023-04-11T23:22:26.051Z,98228.09
2023-04-11T23:24:34.529Z,98228.06
2023-04-11T23:26:40.270Z,98226.34
2023-04-11T23:28:45.248Z,98223.06
2023-04-11T23:30:50.289Z,98227.19
2023-04-11T23:32:56.156Z,98220.53
2023-04-11T23:35:01.716Z,98218.88
2023-04-11T23:37:07.921Z,98208.88
2023-04-11T23:39:12.945Z,98212.16
2023-04-11T23:41:20.531Z,98206.38
2023-04-11T23:43:25.561Z,98203.06
2023-04-11T23:45:31.405Z,98205.50
2023-04-11T23:47:37.415Z,98188.88
2023-04-11T23:49:42.471Z,98191.25
2023-04-11T23:51:47.812Z,98185.34
2023-04-11T23:53:53.192Z,98182.91
2023-04-11T23:55:58.251Z,98175.41
2023-04-11T23:58:06.337Z,98158.88
